sensor_id;sensor_type;location;lat;lon;timestamp;pressure;altitude;pressure_sealevel;temperature;humidity
75166;BME280;63747;48.042;10.088;2023-07-29T00:02:24;94880.00;;;15.90;69.92
75166;BME280;63747;48.042;10.088;2023-07-29T00:05:25;94876.13;;;15.86;70.04
75166;BME280;63747;48.042;10.088;2023-07-29T00:08:25;94875.13;;;15.81;70.03
75166;BME280;63747;48.042;10.088;2023-07-29T00:11:26;94867.13;;;15.74;69.97
75166;BME280;63747;48.042;10.088;2023-07-29T00:14:27;94871.47;;;15.68;70.03
75166;BME280;63747;48.042;10.088;2023-07-29T00:17:27;94864.72;;;15.66;69.72
75166;BME280;63747;48.042;10.088;2023-07-29T00:20:28;94870.25;;;15.64;69.69
75166;BME280;63747;48.042;10.088;2023-07-29T00:23:29;94865.34;;;15.61;69.56
75166;BME280;63747;48.042;10.088;2023-07-29T00:26:30;94861.88;;;15.54;69.75
75166;BME280;63747;48.042;10.088;2023-07-29T00:29:30;94865.00;;;15.44;69.39
75166;BME280;63747;48.042;10.088;2023-07-29T00:32:31;94857.63;;;15.40;69.81
75166;BME280;63747;48.042;10.088;2023-07-29T00:35:32;94860.53;;;15.38;69.69
75166;BME280;63747;48.042;10.088;2023-07-29T00:38:32;94863.78;;;15.40;69.92
75166;BME280;63747;48.042;10.088;2023-07-29T00:41:33;94862.34;;;15.38;69.92
75166;BME280;63747;48.042;10.088;2023-07-29T00:44:34;94859.28;;;15.34;69.93
75166;BME280;63747;48.042;10.088;2023-07-29T00:47:35;94855.41;;;15.30;70.07
75166;BME280;63747;48.042;10.088;2023-07-29T00:50:35;94862.38;;;15.31;70.51
75166;BME280;63747;48.042;10.088;2023-07-29T00:53:36;94868.16;;;15.28;70.44
75166;BME280;63747;48.042;10.088;2023-07-29T00:56:37;94862.22;;;15.26;70.63
75166;BME280;63747;48.042;10.088;2023-07-29T00:59:38;94864.06;;;15.26;70.73
75166;BME280;63747;48.042;10.088;2023-07-29T01:02:39;94866.31;;;15.22;70.40
75166;BME280;63747;48.042;10.088;2023-07-29T01:06:12;94861.56;;;15.17;70.82
75166;BME280;63747;48.042;10.088;2023-07-29T01:09:21;94855.81;;;15.20;70.91
75166;BME280;63747;48.042;10.088;2023-07-29T01:16:11;94851.75;;;15.18;71.40
75166;BME280;63747;48.042;10.088;2023-07-29T01:22:44;94827.31;;;15.08;71.01
75166;BME280;63747;48.042;10.088;2023-07-29T01:25:45;94834.31;;;15.02;71.57
75166;BME280;63747;48.042;10.088;2023-07-29T01:28:46;94840.09;;;14.99;71.91
75166;BME280;63747;48.042;10.088;2023-07-29T01:31:48;94840.09;;;14.99;71.90
75166;BME280;63747;48.042;10.088;2023-07-29T01:35:13;94853.84;;;14.96;72.23
75166;BME280;63747;48.042;10.088;2023-07-29T01:38:29;94848.72;;;14.94;72.08
75166;BME280;63747;48.042;10.088;2023-07-29T01:41:35;94850.34;;;14.95;72.07
75166;BME280;63747;48.042;10.088;2023-07-29T01:44:36;94837.81;;;14.96;71.97
75166;BME280;63747;48.042;10.088;2023-07-29T01:47:37;94834.75;;;14.99;72.07
75166;BME280;63747;48.042;10.088;2023-07-29T01:50:40;94839.66;;;15.02;72.11
75166;BME280;63747;48.042;10.088;2023-07-29T01:53:41;94832.91;;;15.00;72.26
75166;BME280;63747;48.042;10.088;2023-07-29T01:56:41;94825.91;;;14.99;71.83
75166;BME280;63747;48.042;10.088;2023-07-29T01:59:42;94833.09;;;14.98;72.35
75166;BME280;63747;48.042;10.088;2023-07-29T02:02:43;94828.16;;;15.02;72.26
75166;BME280;63747;48.042;10.088;2023-07-29T02:05:43;94838.00;;;15.01;72.18
75166;BME280;63747;48.042;10.088;2023-07-29T02:08:44;94834.09;;;15.04;72.43
75166;BME280;63747;48.042;10.088;2023-07-29T02:11:45;94828.56;;;15.05;72.73
75166;BME280;63747;48.042;10.088;2023-07-29T02:14:45;94834.50;;;15.07;72.33
75166;BME280;63747;48.042;10.088;2023-07-29T02:17:46;94827.56;;;15.00;72.27
75166;BME280;63747;48.042;10.088;2023-07-29T02:20:46;94823.44;;;14.97;72.19
75166;BME280;63747;48.042;10.088;2023-07-29T02:23:49;94817.72;;;14.93;72.19
75166;BME280;63747;48.042;10.088;2023-07-29T02:26:50;94824.69;;;14.94;72.20
75166;BME280;63747;48.042;10.088;2023-07-29T02:29:50;94823.88;;;14.94;72.15
75166;BME280;63747;48.042;10.088;2023-07-29T02:32:51;94825.13;;;14.91;72.36
75166;BME280;63747;48.042;10.088;2023-07-29T02:35:52;94825.53;;;14.88;72.53
75166;BME280;63747;48.042;10.088;2023-07-29T02:38:52;94814.25;;;14.86;72.54
75166;BME280;63747;48.042;10.088;2023-07-29T02:41:53;94811.16;;;14.83;72.76
75166;BME280;63747;48.042;10.088;2023-07-29T02:44:55;94817.94;;;14.85;72.53
75166;BME280;63747;48.042;10.088;2023-07-29T02:47:56;94812.63;;;14.85;72.38
75166;BME280;63747;48.042;10.088;2023-07-29T02:50:56;94813.66;;;14.84;72.77
75166;BME280;63747;48.042;10.088;2023-07-29T02:53:57;94801.53;;;14.75;72.70
75166;BME280;63747;48.042;10.088;2023-07-29T02:56:58;94792.13;;;14.73;72.57
75166;BME280;63747;48.042;10.088;2023-07-29T02:59:59;94796.41;;;14.74;72.54
75166;BME280;63747;48.042;10.088;2023-07-29T03:02:59;94786.78;;;14.73;72.58
75166;BME280;63747;48.042;10.088;2023-07-29T03:06:02;94793.97;;;14.72;72.61
75166;BME280;63747;48.042;10.088;2023-07-29T03:09:02;94787.59;;;14.73;72.93
75166;BME280;63747;48.042;10.088;2023-07-29T03:12:03;94790.88;;;14.68;72.50
75166;BME280;63747;48.042;10.088;2023-07-29T03:15:04;94788.44;;;14.67;72.81
75166;BME280;63747;48.042;10.088;2023-07-29T03:18:05;94785.78;;;14.60;72.83
75166;BME280;63747;48.042;10.088;2023-07-29T03:21:06;94786.22;;;14.57;72.98
75166;BME280;63747;48.042;10.088;2023-07-29T03:24:07;94796.47;;;14.54;72.62
75166;BME280;63747;48.042;10.088;2023-07-29T03:27:07;94795.66;;;14.47;72.71
75166;BME280;63747;48.042;10.088;2023-07-29T03:30:10;94788.69;;;14.46;73.03
75166;BME280;63747;48.042;10.088;2023-07-29T03:33:10;94788.47;;;14.47;73.29
75166;BME280;63747;48.042;10.088;2023-07-29T03:36:11;94787.22;;;14.43;73.50
75166;BME280;63747;48.042;10.088;2023-07-29T03:39:12;94786.03;;;14.39;73.60
75166;BME280;63747;48.042;10.088;2023-07-29T03:42:12;94786.25;;;14.37;74.11
75166;BME280;63747;48.042;10.088;2023-07-29T03:45:13;94785.81;;;14.40;74.16
75166;BME280;63747;48.042;10.088;2023-07-29T03:48:14;94782.13;;;14.41;74.32
75166;BME280;63747;48.042;10.088;2023-07-29T03:51:14;94781.09;;;14.42;74.34
75166;BME280;63747;48.042;10.088;2023-07-29T03:54:15;94783.13;;;14.47;74.63
75166;BME280;63747;48.042;10.088;2023-07-29T03:57:16;94772.44;;;14.54;74.38
75166;BME280;63747;48.042;10.088;2023-07-29T04:00:16;94774.06;;;14.61;74.78
75166;BME280;63747;48.042;10.088;2023-07-29T04:03:17;94784.50;;;14.69;74.64
75166;BME280;63747;48.042;10.088;2023-07-29T04:06:18;94792.50;;;14.76;74.73
75166;BME280;63747;48.042;10.088;2023-07-29T04:09:18;94786.53;;;14.81;74.36
75166;BME280;63747;48.042;10.088;2023-07-29T04:12:19;94792.69;;;14.88;74.38
75166;BME280;63747;48.042;10.088;2023-07-29T04:15:21;94803.56;;;14.86;74.11
75166;BME280;63747;48.042;10.088;2023-07-29T04:18:22;94799.28;;;14.79;74.60
75166;BME280;63747;48.042;10.088;2023-07-29T04:21:22;94797.00;;;14.82;74.85
75166;BME280;63747;48.042;10.088;2023-07-29T04:24:23;94793.09;;;14.91;74.95
75166;BME280;63747;48.042;10.088;2023-07-29T04:27:24;94782.22;;;14.93;74.47
75166;BME280;63747;48.042;10.088;2023-07-29T04:30:25;94782.59;;;14.96;74.79
75166;BME280;63747;48.042;10.088;2023-07-29T04:33:25;94775.59;;;15.02;74.67
75166;BME280;63747;48.042;10.088;2023-07-29T04:36:26;94772.31;;;15.00;74.49
75166;BME280;63747;48.042;10.088;2023-07-29T04:39:27;94780.13;;;15.02;74.50
75166;BME280;63747;48.042;10.088;2023-07-29T04:42:27;94779.28;;;15.01;74.85
75166;BME280;63747;48.042;10.088;2023-07-29T04:45:29;94776.00;;;15.06;75.00
75166;BME280;63747;48.042;10.088;2023-07-29T04:48:29;94764.47;;;15.12;74.48
75166;BME280;63747;48.042;10.088;2023-07-29T04:51:30;94755.44;;;15.13;73.98
75166;BME280;63747;48.042;10.088;2023-07-29T04:54:34;94753.38;;;15.15;74.36
75166;BME280;63747;48.042;10.088;2023-07-29T04:57:34;94764.84;;;15.22;74.30
75166;BME280;63747;48.042;10.088;2023-07-29T05:00:35;94775.28;;;15.30;74.65
75166;BME280;63747;48.042;10.088;2023-07-29T05:03:36;94782.84;;;15.40;74.50
75166;BME280;63747;48.042;10.088;2023-07-29T05:06:38;94785.25;;;15.55;74.58
75166;BME280;63747;48.042;10.088;2023-07-29T05:09:39;94797.94;;;15.66;75.07
75166;BME280;63747;48.042;10.088;2023-07-29T05:12:39;94812.91;;;15.67;75.03
75166;BME280;63747;48.042;10.088;2023-07-29T05:15:40;94795.03;;;15.67;74.66
75166;BME280;63747;48.042;10.088;2023-07-29T05:18:41;94799.56;;;15.67;74.90
75166;BME280;63747;48.042;10.088;2023-07-29T05:21:41;94817.22;;;15.68;75.25
75166;BME280;63747;48.042;10.088;2023-07-29T05:24:42;94825.84;;;15.70;75.17
75166;BME280;63747;48.042;10.088;2023-07-29T05:27:43;94816.38;;;15.74;74.60
75166;BME280;63747;48.042;10.088;2023-07-29T05:30:44;94835.72;;;15.69;74.92
75166;BME280;63747;48.042;10.088;2023-07-29T05:33:44;94823.59;;;15.67;74.57
75166;BME280;63747;48.042;10.088;2023-07-29T05:36:45;94821.13;;;15.65;74.08
75166;BME280;63747;48.042;10.088;2023-07-29T05:39:46;94819.31;;;15.66;73.87
75166;BME280;63747;48.042;10.088;2023-07-29T05:42:47;94822.16;;;15.64;73.68
75166;BME280;63747;48.042;10.088;2023-07-29T05:45:48;94824.22;;;15.62;73.63
75166;BME280;63747;48.042;10.088;2023-07-29T05:48:48;94822.97;;;15.65;73.55
75166;BME280;63747;48.042;10.088;2023-07-29T05:51:49;94802.22;;;15.67;73.79
75166;BME280;63747;48.042;10.088;2023-07-29T05:54:52;94826.88;;;15.69;73.65
75166;BME280;63747;48.042;10.088;2023-07-29T05:57:52;94820.91;;;15.73;74.01
75166;BME280;63747;48.042;10.088;2023-07-29T06:00:53;94803.00;;;15.74;73.45
75166;BME280;63747;48.042;10.088;2023-07-29T06:03:54;94820.06;;;15.73;73.63
75166;BME280;63747;48.042;10.088;2023-07-29T06:06:55;94801.38;;;15.73;74.39
75166;BME280;63747;48.042;10.088;2023-07-29T06:09:56;94800.28;;;15.81;74.58
75166;BME280;63747;48.042;10.088;2023-07-29T06:12:57;94810.94;;;15.87;74.63
75166;BME280;63747;48.042;10.088;2023-07-29T06:15:58;94813.31;;;16.02;74.53
75166;BME280;63747;48.042;10.088;2023-07-29T06:18:59;94815.84;;;16.22;74.44
75166;BME280;63747;48.042;10.088;2023-07-29T06:21:59;94811.38;;;16.41;74.03
75166;BME280;63747;48.042;10.088;2023-07-29T06:25:02;94810.97;;;16.62;73.86
75166;BME280;63747;48.042;10.088;2023-07-29T06:28:02;94814.34;;;16.76;74.02
75166;BME280;63747;48.042;10.088;2023-07-29T06:31:03;94822.41;;;16.94;73.56
75166;BME280;63747;48.042;10.088;2023-07-29T06:34:04;94829.31;;;17.02;73.35
75166;BME280;63747;48.042;10.088;2023-07-29T06:37:05;94831.78;;;17.03;73.35
75166;BME280;63747;48.042;10.088;2023-07-29T06:40:06;94824.78;;;17.02;72.96
75166;BME280;63747;48.042;10.088;2023-07-29T06:43:06;94832.09;;;17.13;72.72
75166;BME280;63747;48.042;10.088;2023-07-29T06:46:07;94831.34;;;17.25;72.46
75166;BME280;63747;48.042;10.088;2023-07-29T06:49:08;94838.84;;;17.34;72.37
75166;BME280;63747;48.042;10.088;2023-07-29T06:52:08;94820.81;;;17.60;71.94
75166;BME280;63747;48.042;10.088;2023-07-29T06:55:09;94825.19;;;17.73;71.62
75166;BME280;63747;48.042;10.088;2023-07-29T06:58:10;94823.47;;;18.08;70.72
75166;BME280;63747;48.042;10.088;2023-07-29T07:01:11;94824.22;;;18.39;70.46
75166;BME280;63747;48.042;10.088;2023-07-29T07:04:11;94832.47;;;18.79;69.21
75166;BME280;63747;48.042;10.088;2023-07-29T07:07:12;94832.91;;;18.64;68.86
75166;BME280;63747;48.042;10.088;2023-07-29T07:10:13;94829.38;;;18.75;68.47
75166;BME280;63747;48.042;10.088;2023-07-29T07:13:14;94815.97;;;19.11;68.14
75166;BME280;63747;48.042;10.088;2023-07-29T07:16:15;94818.47;;;19.41;67.50
75166;BME280;63747;48.042;10.088;2023-07-29T07:19:15;94818.22;;;19.66;66.47
75166;BME280;63747;48.042;10.088;2023-07-29T07:22:16;94815.28;;;19.96;66.33
75166;BME280;63747;48.042;10.088;2023-07-29T07:25:16;94819.94;;;20.17;65.48
75166;BME280;63747;48.042;10.088;2023-07-29T07:28:17;94809.50;;;20.49;64.86
75166;BME280;63747;48.042;10.088;2023-07-29T07:31:18;94817.22;;;20.79;63.55
75166;BME280;63747;48.042;10.088;2023-07-29T07:34:19;94824.16;;;20.75;64.20
75166;BME280;63747;48.042;10.088;2023-07-29T07:37:20;94824.59;;;21.06;63.19
75166;BME280;63747;48.042;10.088;2023-07-29T07:40:21;94834.59;;;21.22;62.97
75166;BME280;63747;48.042;10.088;2023-07-29T07:43:22;94828.03;;;21.18;62.77
75166;BME280;63747;48.042;10.088;2023-07-29T07:46:22;94817.81;;;21.20;61.79
75166;BME280;63747;48.042;10.088;2023-07-29T07:49:23;94821.56;;;21.36;61.41
75166;BME280;63747;48.042;10.088;2023-07-29T07:52:24;94819.97;;;21.18;61.58
75166;BME280;63747;48.042;10.088;2023-07-29T07:55:24;94823.63;;;21.12;61.96
75166;BME280;63747;48.042;10.088;2023-07-29T07:58:25;94813.50;;;21.19;61.02
75166;BME280;63747;48.042;10.088;2023-07-29T08:01:26;94811.94;;;21.23;61.85
75166;BME280;63747;48.042;10.088;2023-07-29T08:04:26;94813.94;;;21.55;61.52
75166;BME280;63747;48.042;10.088;2023-07-29T08:07:27;94804.91;;;21.66;61.17
75166;BME280;63747;48.042;10.088;2023-07-29T08:10:28;94820.16;;;21.99;60.47
75166;BME280;63747;48.042;10.088;2023-07-29T08:13:28;94818.25;;;22.26;60.23
75166;BME280;63747;48.042;10.088;2023-07-29T08:16:29;94819.13;;;22.32;58.86
75166;BME280;63747;48.042;10.088;2023-07-29T08:19:30;94819.66;;;22.61;58.32
75166;BME280;63747;48.042;10.088;2023-07-29T08:22:31;94821.47;;;22.88;57.74
75166;BME280;63747;48.042;10.088;2023-07-29T08:25:32;94820.41;;;22.89;57.84
75166;BME280;63747;48.042;10.088;2023-07-29T08:28:34;94816.56;;;23.22;56.57
75166;BME280;63747;48.042;10.088;2023-07-29T08:31:35;94810.50;;;23.47;55.68
75166;BME280;63747;48.042;10.088;2023-07-29T08:34:36;94818.41;;;23.63;55.19
75166;BME280;63747;48.042;10.088;2023-07-29T08:37:36;94818.06;;;23.45;55.29
75166;BME280;63747;48.042;10.088;2023-07-29T08:40:42;94821.66;;;23.13;55.10
75166;BME280;63747;48.042;10.088;2023-07-29T08:43:52;94821.34;;;23.57;55.83
75166;BME280;63747;48.042;10.088;2023-07-29T08:46:53;94828.63;;;24.14;55.06
75166;BME280;63747;48.042;10.088;2023-07-29T08:49:56;94828.66;;;24.39;54.52
75166;BME280;63747;48.042;10.088;2023-07-29T08:52:58;94816.75;;;24.40;53.98
75166;BME280;63747;48.042;10.088;2023-07-29T08:56:00;94814.88;;;24.66;54.52
75166;BME280;63747;48.042;10.088;2023-07-29T08:59:01;94816.47;;;24.93;52.99
75166;BME280;63747;48.042;10.088;2023-07-29T09:02:02;94814.81;;;25.12;52.46
75166;BME280;63747;48.042;10.088;2023-07-29T09:05:03;94806.75;;;24.66;51.19
75166;BME280;63747;48.042;10.088;2023-07-29T09:08:04;94812.41;;;24.34;52.93
75166;BME280;63747;48.042;10.088;2023-07-29T09:11:05;94815.41;;;24.58;52.50
75166;BME280;63747;48.042;10.088;2023-07-29T09:14:06;94808.34;;;24.98;52.31
75166;BME280;63747;48.042;10.088;2023-07-29T09:17:08;94809.69;;;25.06;51.25
75166;BME280;63747;48.042;10.088;2023-07-29T09:20:10;94805.84;;;25.27;51.56
75166;BME280;63747;48.042;10.088;2023-07-29T09:23:11;94807.09;;;25.65;51.10
75166;BME280;63747;48.042;10.088;2023-07-29T09:26:12;94807.91;;;25.61;50.52
75166;BME280;63747;48.042;10.088;2023-07-29T09:29:12;94810.94;;;25.54;49.95
75166;BME280;63747;48.042;10.088;2023-07-29T09:32:24;94802.63;;;25.05;48.43
75166;BME280;63747;48.042;10.088;2023-07-29T09:35:28;94816.47;;;25.08;48.48
75166;BME280;63747;48.042;10.088;2023-07-29T09:38:29;94816.16;;;25.35;48.16
75166;BME280;63747;48.042;10.088;2023-07-29T09:41:30;94808.75;;;25.61;47.87
75166;BME280;63747;48.042;10.088;2023-07-29T09:44:36;94810.84;;;25.74;47.71
75166;BME280;63747;48.042;10.088;2023-07-29T09:47:36;94801.59;;;25.91;48.59
75166;BME280;63747;48.042;10.088;2023-07-29T09:50:37;94801.13;;;25.68;48.95
75166;BME280;63747;48.042;10.088;2023-07-29T09:53:43;94813.44;;;26.05;47.68
75166;BME280;63747;48.042;10.088;2023-07-29T09:56:44;94812.06;;;26.08;46.41
75166;BME280;63747;48.042;10.088;2023-07-29T09:59:55;94786.03;;;26.01;47.56
75166;BME280;63747;48.042;10.088;2023-07-29T10:02:57;94792.75;;;26.14;47.33
75166;BME280;63747;48.042;10.088;2023-07-29T10:06:06;94795.41;;;26.24;47.27
75166;BME280;63747;48.042;10.088;2023-07-29T10:09:07;94791.94;;;26.58;47.20
75166;BME280;63747;48.042;10.088;2023-07-29T10:12:08;94791.44;;;26.51;46.07
75166;BME280;63747;48.042;10.088;2023-07-29T10:15:10;94789.13;;;26.68;46.65
75166;BME280;63747;48.042;10.088;2023-07-29T10:18:11;94784.06;;;26.85;46.04
75166;BME280;63747;48.042;10.088;2023-07-29T10:21:13;94787.03;;;26.89;45.87
75166;BME280;63747;48.042;10.088;2023-07-29T10:24:16;94779.59;;;27.00;45.31
75166;BME280;63747;48.042;10.088;2023-07-29T10:27:19;94784.88;;;26.86;46.83
75166;BME280;63747;48.042;10.088;2023-07-29T10:30:21;94779.13;;;26.93;45.47
75166;BME280;63747;48.042;10.088;2023-07-29T10:33:22;94773.09;;;26.96;46.09
75166;BME280;63747;48.042;10.088;2023-07-29T10:36:23;94789.66;;;27.28;44.99
75166;BME280;63747;48.042;10.088;2023-07-29T10:39:25;94764.56;;;27.55;44.76
75166;BME280;63747;48.042;10.088;2023-07-29T10:42:26;94765.63;;;27.35;44.53
75166;BME280;63747;48.042;10.088;2023-07-29T10:45:26;94757.84;;;27.48;43.13
75166;BME280;63747;48.042;10.088;2023-07-29T10:51:37;94757.44;;;28.02;43.61
75166;BME280;63747;48.042;10.088;2023-07-29T10:54:46;94765.47;;;28.31;41.90
75166;BME280;63747;48.042;10.088;2023-07-29T10:57:47;94763.47;;;28.56;41.06
75166;BME280;63747;48.042;10.088;2023-07-29T11:00:49;94760.47;;;28.38;42.13
75166;BME280;63747;48.042;10.088;2023-07-29T11:04:01;94758.31;;;28.54;42.19
75166;BME280;63747;48.042;10.088;2023-07-29T11:07:21;94764.00;;;28.71;41.82
75166;BME280;63747;48.042;10.088;2023-07-29T11:10:28;94760.97;;;28.92;39.44
75166;BME280;63747;48.042;10.088;2023-07-29T11:13:30;94746.53;;;29.05;39.81
75166;BME280;63747;48.042;10.088;2023-07-29T11:16:31;94749.13;;;29.29;40.75
75166;BME280;63747;48.042;10.088;2023-07-29T11:19:32;94737.59;;;29.32;40.47
75166;BME280;63747;48.042;10.088;2023-07-29T11:22:34;94741.31;;;29.22;39.21
75166;BME280;63747;48.042;10.088;2023-07-29T11:25:35;94746.34;;;29.01;40.88
75166;BME280;63747;48.042;10.088;2023-07-29T11:28:39;94744.13;;;29.03;39.39
75166;BME280;63747;48.042;10.088;2023-07-29T11:31:40;94742.88;;;28.82;39.56
75166;BME280;63747;48.042;10.088;2023-07-29T11:34:41;94736.09;;;28.80;41.03
75166;BME280;63747;48.042;10.088;2023-07-29T11:37:45;94725.63;;;29.00;39.55
75166;BME280;63747;48.042;10.088;2023-07-29T11:40:54;94731.97;;;28.96;39.95
75166;BME280;63747;48.042;10.088;2023-07-29T11:43:55;94725.94;;;29.40;39.36
75166;BME280;63747;48.042;10.088;2023-07-29T11:46:55;94727.03;;;29.67;39.51
75166;BME280;63747;48.042;10.088;2023-07-29T11:49:58;94727.34;;;29.79;37.76
75166;BME280;63747;48.042;10.088;2023-07-29T11:53:02;94717.22;;;28.97;39.11
75166;BME280;63747;48.042;10.088;2023-07-29T11:56:03;94720.25;;;28.95;39.03
75166;BME280;63747;48.042;10.088;2023-07-29T11:59:04;94715.38;;;28.92;37.88
75166;BME280;63747;48.042;10.088;2023-07-29T12:02:09;94720.88;;;29.20;38.69
75166;BME280;63747;48.042;10.088;2023-07-29T12:05:11;94718.13;;;29.06;39.05
75166;BME280;63747;48.042;10.088;2023-07-29T12:08:12;94720.34;;;28.90;37.67
75166;BME280;63747;48.042;10.088;2023-07-29T12:11:14;94712.94;;;28.77;37.50
75166;BME280;63747;48.042;10.088;2023-07-29T12:14:16;94707.41;;;28.96;37.18
75166;BME280;63747;48.042;10.088;2023-07-29T12:17:18;94701.59;;;28.70;37.80
75166;BME280;63747;48.042;10.088;2023-07-29T12:20:20;94697.88;;;27.95;40.75
75166;BME280;63747;48.042;10.088;2023-07-29T12:23:24;94688.09;;;27.09;42.64
75166;BME280;63747;48.042;10.088;2023-07-29T12:26:29;94700.09;;;26.79;43.56
75166;BME280;63747;48.042;10.088;2023-07-29T12:29:30;94695.16;;;26.57;44.51
75166;BME280;63747;48.042;10.088;2023-07-29T12:32:31;94690.69;;;26.37;44.88
75166;BME280;63747;48.042;10.088;2023-07-29T12:35:38;94681.00;;;26.26;45.55
75166;BME280;63747;48.042;10.088;2023-07-29T12:38:42;94685.81;;;26.34;45.83
75166;BME280;63747;48.042;10.088;2023-07-29T12:41:44;94685.75;;;26.10;46.20
75166;BME280;63747;48.042;10.088;2023-07-29T12:44:44;94686.59;;;26.05;46.66
75166;BME280;63747;48.042;10.088;2023-07-29T12:47:45;94686.53;;;25.71;47.43
75166;BME280;63747;48.042;10.088;2023-07-29T12:50:46;94699.28;;;25.76;47.14
75166;BME280;63747;48.042;10.088;2023-07-29T12:53:46;94710.66;;;25.78;47.34
75166;BME280;63747;48.042;10.088;2023-07-29T12:56:47;94707.78;;;25.59;47.32
75166;BME280;63747;48.042;10.088;2023-07-29T12:59:48;94716.00;;;25.44;47.58
75166;BME280;63747;48.042;10.088;2023-07-29T13:02:48;94725.03;;;25.19;48.64
75166;BME280;63747;48.042;10.088;2023-07-29T13:05:49;94722.53;;;25.38;48.73
75166;BME280;63747;48.042;10.088;2023-07-29T13:08:50;94747.66;;;25.64;49.12
75166;BME280;63747;48.042;10.088;2023-07-29T13:11:50;94751.56;;;25.37;50.57
75166;BME280;63747;48.042;10.088;2023-07-29T13:14:51;94747.38;;;24.70;51.27
75166;BME280;63747;48.042;10.088;2023-07-29T13:17:52;94731.41;;;24.53;51.94
75166;BME280;63747;48.042;10.088;2023-07-29T13:20:53;94743.84;;;24.64;52.15
75166;BME280;63747;48.042;10.088;2023-07-29T13:23:54;94743.34;;;24.67;51.88
75166;BME280;63747;48.042;10.088;2023-07-29T13:26:54;94748.16;;;24.86;51.40
75166;BME280;63747;48.042;10.088;2023-07-29T13:29:55;94754.63;;;25.00;51.61
75166;BME280;63747;48.042;10.088;2023-07-29T13:32:56;94746.22;;;25.22;51.33
75166;BME280;63747;48.042;10.088;2023-07-29T13:35:56;94740.19;;;25.35;50.96
75166;BME280;63747;48.042;10.088;2023-07-29T13:38:57;94743.16;;;25.34;52.65
75166;BME280;63747;48.042;10.088;2023-07-29T13:41:58;94725.03;;;25.19;52.49
75166;BME280;63747;48.042;10.088;2023-07-29T13:44:58;94723.47;;;24.97;52.99
75166;BME280;63747;48.042;10.088;2023-07-29T13:47:59;94755.22;;;24.71;53.44
75166;BME280;63747;48.042;10.088;2023-07-29T13:51:00;94808.28;;;24.11;53.35
75166;BME280;63747;48.042;10.088;2023-07-29T13:54:00;94775.81;;;22.86;54.42
75166;BME280;63747;48.042;10.088;2023-07-29T13:57:01;94790.06;;;21.85;54.73
75166;BME280;63747;48.042;10.088;2023-07-29T14:00:02;94813.34;;;20.92;57.08
75166;BME280;63747;48.042;10.088;2023-07-29T14:03:03;94810.22;;;20.61;58.45
75166;BME280;63747;48.042;10.088;2023-07-29T14:06:04;94805.06;;;20.77;58.57
75166;BME280;63747;48.042;10.088;2023-07-29T14:09:05;94803.66;;;20.91;58.25
75166;BME280;63747;48.042;10.088;2023-07-29T14:12:05;94804.38;;;20.86;59.13
75166;BME280;63747;48.042;10.088;2023-07-29T14:15:07;94796.50;;;21.18;60.05
75166;BME280;63747;48.042;10.088;2023-07-29T14:18:08;94788.03;;;21.76;59.23
75166;BME280;63747;48.042;10.088;2023-07-29T14:21:08;94790.78;;;22.03;59.64
75166;BME280;63747;48.042;10.088;2023-07-29T14:24:09;94786.63;;;22.22;57.32
75166;BME280;63747;48.042;10.088;2023-07-29T14:27:10;94791.91;;;22.39;58.06
75166;BME280;63747;48.042;10.088;2023-07-29T14:30:11;94796.75;;;22.37;58.26
75166;BME280;63747;48.042;10.088;2023-07-29T14:33:11;94798.34;;;22.33;58.95
75166;BME280;63747;48.042;10.088;2023-07-29T14:36:13;94796.50;;;22.38;58.13
75166;BME280;63747;48.042;10.088;2023-07-29T14:39:13;94797.56;;;22.37;58.19
75166;BME280;63747;48.042;10.088;2023-07-29T14:42:14;94794.34;;;22.40;57.85
75166;BME280;63747;48.042;10.088;2023-07-29T14:45:15;94803.13;;;22.25;57.74
75166;BME280;63747;48.042;10.088;2023-07-29T14:48:16;94807.31;;;22.11;57.56
75166;BME280;63747;48.042;10.088;2023-07-29T14:51:16;94817.66;;;21.92;58.38
75166;BME280;63747;48.042;10.088;2023-07-29T14:54:17;94814.94;;;21.92;58.24
75166;BME280;63747;48.042;10.088;2023-07-29T14:57:18;94801.91;;;21.84;58.55
75166;BME280;63747;48.042;10.088;2023-07-29T15:00:18;94805.69;;;21.83;58.50
75166;BME280;63747;48.042;10.088;2023-07-29T15:03:19;94800.84;;;21.85;58.39
75166;BME280;63747;48.042;10.088;2023-07-29T15:06:20;94791.69;;;21.86;58.15
75166;BME280;63747;48.042;10.088;2023-07-29T15:09:20;94794.09;;;21.88;58.01
75166;BME280;63747;48.042;10.088;2023-07-29T15:12:21;94803.09;;;21.93;57.87
75166;BME280;63747;48.042;10.088;2023-07-29T15:15:22;94811.25;;;21.77;58.02
75166;BME280;63747;48.042;10.088;2023-07-29T15:18:22;94817.91;;;21.69;58.37
75166;BME280;63747;48.042;10.088;2023-07-29T15:21:23;94815.44;;;21.67;58.27
75166;BME280;63747;48.042;10.088;2023-07-29T15:24:24;94819.59;;;21.53;57.35
75166;BME280;63747;48.042;10.088;2023-07-29T15:27:24;94811.75;;;21.52;57.18
75166;BME280;63747;48.042;10.088;2023-07-29T15:30:25;94821.47;;;21.53;56.56
75166;BME280;63747;48.042;10.088;2023-07-29T15:33:26;94833.44;;;21.40;56.63
75166;BME280;63747;48.042;10.088;2023-07-29T15:36:27;94826.97;;;21.19;56.96
75166;BME280;63747;48.042;10.088;2023-07-29T15:39:28;94822.41;;;21.03;57.26
75166;BME280;63747;48.042;10.088;2023-07-29T15:42:28;94831.06;;;21.05;57.11
75166;BME280;63747;48.042;10.088;2023-07-29T15:45:29;94827.66;;;20.92;57.71
75166;BME280;63747;48.042;10.088;2023-07-29T15:48:30;94831.31;;;20.86;57.17
75166;BME280;63747;48.042;10.088;2023-07-29T15:51:31;94825.53;;;20.78;57.58
75166;BME280;63747;48.042;10.088;2023-07-29T15:54:32;94824.00;;;20.65;57.27
75166;BME280;63747;48.042;10.088;2023-07-29T15:57:32;94825.31;;;20.62;57.84
75166;BME280;63747;48.042;10.088;2023-07-29T16:00:33;94819.38;;;20.60;57.50